sensor_id;sensor_type;location;lat;lon;timestamp;P1;durP1;ratioP1;P2;durP2;ratioP2
22963;SDS011;11648;49.306;6.934;2023-02-28T00:01:23;2.37;;;1.17;;
22963;SDS011;11648;49.306;6.934;2023-02-28T00:03:50;3.17;;;1.00;;
22963;SDS011;11648;49.306;6.934;2023-02-28T00:06:17;2.33;;;1.07;;
22963;SDS011;11648;49.306;6.934;2023-02-28T00:08:44;2.90;;;1.00;;
22963;SDS011;11648;49.306;6.934;2023-02-28T00:11:11;2.10;;;0.90;;
22963;SDS011;11648;49.306;6.934;2023-02-28T00:13:41;3.07;;;1.10;;
22963;SDS011;11648;49.306;6.934;2023-02-28T00:16:11;3.23;;;1.20;;
22963;SDS011;11648;49.306;6.934;2023-02-28T00:18:41;1.60;;;0.90;;
22963;SDS011;11648;49.306;6.934;2023-02-28T00:21:08;2.27;;;1.10;;
22963;SDS011;11648;49.306;6.934;2023-02-28T00:23:35;3.00;;;1.07;;
22963;SDS011;11648;49.306;6.934;2023-02-28T00:26:02;1.67;;;0.70;;
22963;SDS011;11648;49.306;6.934;2023-02-28T00:28:29;2.67;;;1.20;;
22963;SDS011;11648;49.306;6.934;2023-02-28T00:30:58;3.43;;;1.20;;
22963;SDS011;11648;49.306;6.934;2023-02-28T00:33:26;2.37;;;0.97;;
22963;SDS011;11648;49.306;6.934;2023-02-28T00:36:04;3.10;;;1.00;;
22963;SDS011;11648;49.306;6.934;2023-02-28T00:38:34;2.27;;;1.00;;
22963;SDS011;11648;49.306;6.934;2023-02-28T00:41:02;2.67;;;1.03;;
22963;SDS011;11648;49.306;6.934;2023-02-28T00:43:31;2.37;;;1.13;;
22963;SDS011;11648;49.306;6.934;2023-02-28T00:46:00;2.60;;;1.10;;
22963;SDS011;11648;49.306;6.934;2023-02-28T00:48:29;3.20;;;1.10;;
22963;SDS011;11648;49.306;6.934;2023-02-28T00:50:56;2.43;;;1.23;;
22963;SDS011;11648;49.306;6.934;2023-02-28T00:53:24;1.87;;;1.13;;
22963;SDS011;11648;49.306;6.934;2023-02-28T00:55:51;2.93;;;1.20;;
22963;SDS011;11648;49.306;6.934;2023-02-28T00:58:17;2.60;;;1.20;;
22963;SDS011;11648;49.306;6.934;2023-02-28T01:00:44;2.90;;;1.10;;
22963;SDS011;11648;49.306;6.934;2023-02-28T01:03:18;2.77;;;0.90;;
22963;SDS011;11648;49.306;6.934;2023-02-28T01:05:46;2.67;;;1.00;;
22963;SDS011;11648;49.306;6.934;2023-02-28T01:08:14;2.33;;;1.03;;
22963;SDS011;11648;49.306;6.934;2023-02-28T01:10:41;3.17;;;1.00;;
22963;SDS011;11648;49.306;6.934;2023-02-28T01:13:08;3.70;;;1.20;;
22963;SDS011;11648;49.306;6.934;2023-02-28T01:15:36;2.87;;;1.20;;
22963;SDS011;11648;49.306;6.934;2023-02-28T01:18:04;2.30;;;1.10;;
22963;SDS011;11648;49.306;6.934;2023-02-28T01:20:30;2.27;;;0.97;;
22963;SDS011;11648;49.306;6.934;2023-02-28T01:22:57;3.07;;;1.17;;
22963;SDS011;11648;49.306;6.934;2023-02-28T01:25:24;1.77;;;0.93;;
22963;SDS011;11648;49.306;6.934;2023-02-28T01:27:50;2.57;;;1.10;;
22963;SDS011;11648;49.306;6.934;2023-02-28T01:30:18;3.67;;;1.10;;
22963;SDS011;11648;49.306;6.934;2023-02-28T01:32:46;2.73;;;1.00;;
22963;SDS011;11648;49.306;6.934;2023-02-28T01:35:12;1.83;;;1.10;;
22963;SDS011;11648;49.306;6.934;2023-02-28T01:37:39;3.47;;;1.13;;
22963;SDS011;11648;49.306;6.934;2023-02-28T01:40:06;1.80;;;0.90;;
22963;SDS011;11648;49.306;6.934;2023-02-28T01:42:33;2.43;;;1.10;;
22963;SDS011;11648;49.306;6.934;2023-02-28T01:47:46;2.40;;;1.13;;
22963;SDS011;11648;49.306;6.934;2023-02-28T01:50:23;2.90;;;1.10;;
22963;SDS011;11648;49.306;6.934;2023-02-28T01:52:53;3.07;;;1.27;;
22963;SDS011;11648;49.306;6.934;2023-02-28T01:55:23;3.10;;;1.37;;
22963;SDS011;11648;49.306;6.934;2023-02-28T01:57:57;3.47;;;1.10;;
22963;SDS011;11648;49.306;6.934;2023-02-28T02:00:26;1.70;;;1.00;;
22963;SDS011;11648;49.306;6.934;2023-02-28T02:02:56;3.53;;;1.20;;
22963;SDS011;11648;49.306;6.934;2023-02-28T02:05:27;2.10;;;1.20;;
22963;SDS011;11648;49.306;6.934;2023-02-28T02:08:00;1.70;;;1.17;;
22963;SDS011;11648;49.306;6.934;2023-02-28T02:10:32;2.13;;;1.20;;
22963;SDS011;11648;49.306;6.934;2023-02-28T02:18:37;3.17;;;1.40;;
22963;SDS011;11648;49.306;6.934;2023-02-28T02:27:01;2.30;;;1.30;;
22963;SDS011;11648;49.306;6.934;2023-02-28T02:32:32;2.97;;;1.27;;
22963;SDS011;11648;49.306;6.934;2023-02-28T02:37:48;3.10;;;1.20;;
22963;SDS011;11648;49.306;6.934;2023-02-28T02:40:18;2.73;;;1.30;;
22963;SDS011;11648;49.306;6.934;2023-02-28T02:45:41;2.80;;;1.47;;
22963;SDS011;11648;49.306;6.934;2023-02-28T02:48:13;2.20;;;1.30;;
22963;SDS011;11648;49.306;6.934;2023-02-28T02:51:00;3.43;;;1.40;;
22963;SDS011;11648;49.306;6.934;2023-02-28T02:54:15;4.50;;;1.70;;
22963;SDS011;11648;49.306;6.934;2023-02-28T02:56:39;2.67;;;1.70;;
22963;SDS011;11648;49.306;6.934;2023-02-28T02:59:09;2.30;;;1.50;;
22963;SDS011;11648;49.306;6.934;2023-02-28T03:01:39;3.60;;;1.57;;
22963;SDS011;11648;49.306;6.934;2023-02-28T03:04:12;3.00;;;1.50;;
22963;SDS011;11648;49.306;6.934;2023-02-28T03:06:43;3.80;;;1.60;;
22963;SDS011;11648;49.306;6.934;2023-02-28T03:09:09;4.17;;;1.77;;
22963;SDS011;11648;49.306;6.934;2023-02-28T03:11:38;3.10;;;1.50;;
22963;SDS011;11648;49.306;6.934;2023-02-28T03:14:15;4.60;;;1.80;;
22963;SDS011;11648;49.306;6.934;2023-02-28T03:19:47;3.63;;;1.70;;
22963;SDS011;11648;49.306;6.934;2023-02-28T03:28:15;2.70;;;1.53;;
22963;SDS011;11648;49.306;6.934;2023-02-28T03:31:58;4.23;;;1.97;;
22963;SDS011;11648;49.306;6.934;2023-02-28T03:34:04;3.37;;;1.90;;
22963;SDS011;11648;49.306;6.934;2023-02-28T03:36:38;3.13;;;1.80;;
22963;SDS011;11648;49.306;6.934;2023-02-28T03:39:19;5.23;;;2.27;;
22963;SDS011;11648;49.306;6.934;2023-02-28T03:41:51;3.23;;;1.93;;
22963;SDS011;11648;49.306;6.934;2023-02-28T03:44:24;3.73;;;2.00;;
22963;SDS011;11648;49.306;6.934;2023-02-28T03:50:01;4.13;;;2.40;;
22963;SDS011;11648;49.306;6.934;2023-02-28T03:52:35;3.40;;;1.97;;
22963;SDS011;11648;49.306;6.934;2023-02-28T03:55:13;4.80;;;2.20;;
22963;SDS011;11648;49.306;6.934;2023-02-28T03:58:00;3.47;;;2.17;;
22963;SDS011;11648;49.306;6.934;2023-02-28T04:00:35;3.97;;;2.03;;
22963;SDS011;11648;49.306;6.934;2023-02-28T04:03:06;3.50;;;2.20;;
22963;SDS011;11648;49.306;6.934;2023-02-28T04:05:33;3.27;;;2.20;;
22963;SDS011;11648;49.306;6.934;2023-02-28T04:08:13;4.37;;;2.40;;
22963;SDS011;11648;49.306;6.934;2023-02-28T04:10:40;3.63;;;2.23;;
22963;SDS011;11648;49.306;6.934;2023-02-28T04:13:09;4.23;;;2.20;;
22963;SDS011;11648;49.306;6.934;2023-02-28T04:15:36;3.20;;;2.13;;
22963;SDS011;11648;49.306;6.934;2023-02-28T04:18:03;3.80;;;2.40;;
22963;SDS011;11648;49.306;6.934;2023-02-28T04:20:29;5.93;;;2.47;;
22963;SDS011;11648;49.306;6.934;2023-02-28T04:22:56;3.60;;;2.23;;
22963;SDS011;11648;49.306;6.934;2023-02-28T04:25:23;3.73;;;2.37;;
22963;SDS011;11648;49.306;6.934;2023-02-28T04:27:49;3.80;;;2.27;;
22963;SDS011;11648;49.306;6.934;2023-02-28T04:30:16;3.93;;;2.33;;
22963;SDS011;11648;49.306;6.934;2023-02-28T04:32:43;3.40;;;2.17;;
22963;SDS011;11648;49.306;6.934;2023-02-28T04:35:10;4.00;;;2.10;;
22963;SDS011;11648;49.306;6.934;2023-02-28T04:37:37;3.97;;;2.40;;
22963;SDS011;11648;49.306;6.934;2023-02-28T04:40:04;4.70;;;2.50;;
22963;SDS011;11648;49.306;6.934;2023-02-28T04:42:31;4.13;;;2.27;;
22963;SDS011;11648;49.306;6.934;2023-02-28T04:45:02;5.20;;;2.40;;
22963;SDS011;11648;49.306;6.934;2023-02-28T04:47:29;4.37;;;2.33;;
22963;SDS011;11648;49.306;6.934;2023-02-28T04:49:56;3.50;;;2.20;;
22963;SDS011;11648;49.306;6.934;2023-02-28T04:52:23;4.67;;;2.50;;
22963;SDS011;11648;49.306;6.934;2023-02-28T04:54:50;4.53;;;2.70;;
22963;SDS011;11648;49.306;6.934;2023-02-28T04:57:17;4.13;;;2.50;;
22963;SDS011;11648;49.306;6.934;2023-02-28T04:59:43;4.97;;;2.53;;
22963;SDS011;11648;49.306;6.934;2023-02-28T05:02:10;4.73;;;2.60;;
22963;SDS011;11648;49.306;6.934;2023-02-28T05:04:37;4.23;;;2.60;;
22963;SDS011;11648;49.306;6.934;2023-02-28T05:07:04;4.17;;;2.57;;
22963;SDS011;11648;49.306;6.934;2023-02-28T05:09:30;5.00;;;2.63;;
22963;SDS011;11648;49.306;6.934;2023-02-28T05:11:59;5.20;;;2.60;;
22963;SDS011;11648;49.306;6.934;2023-02-28T05:14:25;3.93;;;2.63;;
22963;SDS011;11648;49.306;6.934;2023-02-28T05:16:52;4.67;;;2.53;;
22963;SDS011;11648;49.306;6.934;2023-02-28T05:19:19;4.10;;;2.70;;
22963;SDS011;11648;49.306;6.934;2023-02-28T05:21:51;4.53;;;2.97;;
22963;SDS011;11648;49.306;6.934;2023-02-28T05:24:19;4.10;;;2.80;;
22963;SDS011;11648;49.306;6.934;2023-02-28T05:26:49;4.53;;;3.10;;
22963;SDS011;11648;49.306;6.934;2023-02-28T05:29:18;6.07;;;3.37;;
22963;SDS011;11648;49.306;6.934;2023-02-28T05:31:45;5.80;;;3.10;;
22963;SDS011;11648;49.306;6.934;2023-02-28T05:34:13;6.40;;;3.33;;
22963;SDS011;11648;49.306;6.934;2023-02-28T05:36:42;4.87;;;3.40;;
22963;SDS011;11648;49.306;6.934;2023-02-28T05:39:09;4.30;;;3.20;;
22963;SDS011;11648;49.306;6.934;2023-02-28T05:41:40;5.77;;;3.70;;
22963;SDS011;11648;49.306;6.934;2023-02-28T05:44:08;5.67;;;3.60;;
22963;SDS011;11648;49.306;6.934;2023-02-28T05:46:36;6.87;;;3.60;;
22963;SDS011;11648;49.306;6.934;2023-02-28T05:49:03;5.30;;;3.50;;
22963;SDS011;11648;49.306;6.934;2023-02-28T05:51:30;6.53;;;3.20;;
22963;SDS011;11648;49.306;6.934;2023-02-28T05:54:01;5.03;;;3.37;;
22963;SDS011;11648;49.306;6.934;2023-02-28T05:56:28;5.50;;;3.53;;
22963;SDS011;11648;49.306;6.934;2023-02-28T05:58:55;7.77;;;3.37;;
22963;SDS011;11648;49.306;6.934;2023-02-28T06:04:07;8.23;;;4.07;;
22963;SDS011;11648;49.306;6.934;2023-02-28T06:06:45;5.07;;;3.60;;
22963;SDS011;11648;49.306;6.934;2023-02-28T06:09:12;6.43;;;4.10;;
22963;SDS011;11648;49.306;6.934;2023-02-28T06:11:39;7.33;;;4.43;;
22963;SDS011;11648;49.306;6.934;2023-02-28T06:14:07;5.90;;;3.77;;
22963;SDS011;11648;49.306;6.934;2023-02-28T06:16:34;5.60;;;3.80;;
22963;SDS011;11648;49.306;6.934;2023-02-28T06:19:03;5.87;;;4.00;;
22963;SDS011;11648;49.306;6.934;2023-02-28T06:21:30;7.57;;;4.40;;
22963;SDS011;11648;49.306;6.934;2023-02-28T06:23:58;5.63;;;3.80;;
22963;SDS011;11648;49.306;6.934;2023-02-28T06:26:25;6.40;;;4.33;;
22963;SDS011;11648;49.306;6.934;2023-02-28T06:28:52;6.73;;;4.13;;
22963;SDS011;11648;49.306;6.934;2023-02-28T06:31:18;6.67;;;3.93;;
22963;SDS011;11648;49.306;6.934;2023-02-28T06:33:45;6.33;;;3.97;;
22963;SDS011;11648;49.306;6.934;2023-02-28T06:36:14;8.03;;;4.47;;
22963;SDS011;11648;49.306;6.934;2023-02-28T06:38:43;6.60;;;4.60;;
22963;SDS011;11648;49.306;6.934;2023-02-28T06:41:10;7.80;;;4.27;;
22963;SDS011;11648;49.306;6.934;2023-02-28T06:43:38;6.33;;;4.37;;
22963;SDS011;11648;49.306;6.934;2023-02-28T06:46:08;7.50;;;4.37;;
22963;SDS011;11648;49.306;6.934;2023-02-28T06:48:42;6.30;;;4.50;;
22963;SDS011;11648;49.306;6.934;2023-02-28T06:51:10;6.00;;;3.87;;
22963;SDS011;11648;49.306;6.934;2023-02-28T06:53:40;7.10;;;4.50;;
22963;SDS011;11648;49.306;6.934;2023-02-28T06:56:08;5.67;;;3.93;;
22963;SDS011;11648;49.306;6.934;2023-02-28T06:58:37;7.30;;;4.60;;
22963;SDS011;11648;49.306;6.934;2023-02-28T07:01:06;6.77;;;4.40;;
22963;SDS011;11648;49.306;6.934;2023-02-28T07:03:34;6.30;;;4.47;;
22963;SDS011;11648;49.306;6.934;2023-02-28T07:06:02;8.20;;;4.63;;
22963;SDS011;11648;49.306;6.934;2023-02-28T07:08:30;6.87;;;4.43;;
22963;SDS011;11648;49.306;6.934;2023-02-28T07:10:58;6.57;;;4.00;;
22963;SDS011;11648;49.306;6.934;2023-02-28T07:13:25;7.40;;;4.10;;
22963;SDS011;11648;49.306;6.934;2023-02-28T07:15:55;6.40;;;4.30;;
22963;SDS011;11648;49.306;6.934;2023-02-28T07:18:24;5.50;;;4.00;;
22963;SDS011;11648;49.306;6.934;2023-02-28T07:20:54;8.07;;;4.47;;
22963;SDS011;11648;49.306;6.934;2023-02-28T07:23:21;6.97;;;4.00;;
22963;SDS011;11648;49.306;6.934;2023-02-28T07:25:49;6.97;;;4.27;;
22963;SDS011;11648;49.306;6.934;2023-02-28T07:28:17;5.77;;;4.13;;
22963;SDS011;11648;49.306;6.934;2023-02-28T07:30:43;5.47;;;3.50;;
22963;SDS011;11648;49.306;6.934;2023-02-28T07:33:10;5.07;;;3.40;;
22963;SDS011;11648;49.306;6.934;2023-02-28T07:35:37;5.90;;;3.63;;
22963;SDS011;11648;49.306;6.934;2023-02-28T07:38:03;4.23;;;3.43;;
22963;SDS011;11648;49.306;6.934;2023-02-28T07:40:30;6.93;;;3.30;;
22963;SDS011;11648;49.306;6.934;2023-02-28T07:42:58;4.70;;;3.50;;
22963;SDS011;11648;49.306;6.934;2023-02-28T07:45:26;5.70;;;3.23;;
22963;SDS011;11648;49.306;6.934;2023-02-28T07:47:55;5.30;;;3.83;;
22963;SDS011;11648;49.306;6.934;2023-02-28T07:50:22;4.87;;;3.67;;
22963;SDS011;11648;49.306;6.934;2023-02-28T07:52:52;5.97;;;3.47;;
22963;SDS011;11648;49.306;6.934;2023-02-28T07:55:18;6.20;;;3.50;;
22963;SDS011;11648;49.306;6.934;2023-02-28T07:57:45;5.17;;;3.60;;
22963;SDS011;11648;49.306;6.934;2023-02-28T08:00:12;6.30;;;3.30;;
22963;SDS011;11648;49.306;6.934;2023-02-28T08:02:40;4.90;;;3.07;;
22963;SDS011;11648;49.306;6.934;2023-02-28T08:05:07;4.63;;;3.30;;
22963;SDS011;11648;49.306;6.934;2023-02-28T08:07:34;5.70;;;3.50;;
22963;SDS011;11648;49.306;6.934;2023-02-28T08:10:01;4.43;;;3.20;;
22963;SDS011;11648;49.306;6.934;2023-02-28T08:12:28;4.97;;;3.20;;
22963;SDS011;11648;49.306;6.934;2023-02-28T08:14:55;5.33;;;3.20;;
22963;SDS011;11648;49.306;6.934;2023-02-28T08:17:22;5.37;;;3.23;;
22963;SDS011;11648;49.306;6.934;2023-02-28T08:19:49;4.73;;;3.37;;
22963;SDS011;11648;49.306;6.934;2023-02-28T08:22:15;4.87;;;3.10;;
22963;SDS011;11648;49.306;6.934;2023-02-28T08:24:42;4.87;;;3.40;;
22963;SDS011;11648;49.306;6.934;2023-02-28T08:27:10;4.70;;;3.17;;
22963;SDS011;11648;49.306;6.934;2023-02-28T08:29:37;4.37;;;3.10;;
22963;SDS011;11648;49.306;6.934;2023-02-28T08:32:05;4.20;;;3.20;;
22963;SDS011;11648;49.306;6.934;2023-02-28T08:34:45;4.80;;;3.27;;
22963;SDS011;11648;49.306;6.934;2023-02-28T08:37:13;6.80;;;3.27;;
22963;SDS011;11648;49.306;6.934;2023-02-28T08:39:40;4.50;;;3.40;;
22963;SDS011;11648;49.306;6.934;2023-02-28T08:42:07;4.33;;;2.83;;
22963;SDS011;11648;49.306;6.934;2023-02-28T08:44:33;4.43;;;3.00;;
22963;SDS011;11648;49.306;6.934;2023-02-28T08:47:00;4.37;;;3.13;;
22963;SDS011;11648;49.306;6.934;2023-02-28T08:49:27;3.83;;;2.83;;
22963;SDS011;11648;49.306;6.934;2023-02-28T08:51:55;4.27;;;3.03;;
22963;SDS011;11648;49.306;6.934;2023-02-28T08:54:23;4.47;;;3.20;;
22963;SDS011;11648;49.306;6.934;2023-02-28T08:56:51;5.57;;;2.93;;
22963;SDS011;11648;49.306;6.934;2023-02-28T08:59:18;5.90;;;3.20;;
22963;SDS011;11648;49.306;6.934;2023-02-28T09:01:44;4.67;;;3.50;;
22963;SDS011;11648;49.306;6.934;2023-02-28T09:04:11;5.10;;;3.00;;
22963;SDS011;11648;49.306;6.934;2023-02-28T09:06:42;4.33;;;3.40;;
22963;SDS011;11648;49.306;6.934;2023-02-28T09:09:10;5.30;;;3.30;;
22963;SDS011;11648;49.306;6.934;2023-02-28T09:11:37;5.57;;;3.33;;
22963;SDS011;11648;49.306;6.934;2023-02-28T09:14:04;4.30;;;3.20;;
22963;SDS011;11648;49.306;6.934;2023-02-28T09:16:31;4.70;;;3.30;;
22963;SDS011;11648;49.306;6.934;2023-02-28T09:19:00;6.00;;;3.30;;
22963;SDS011;11648;49.306;6.934;2023-02-28T09:21:27;4.90;;;3.33;;
22963;SDS011;11648;49.306;6.934;2023-02-28T09:23:55;7.37;;;3.57;;
22963;SDS011;11648;49.306;6.934;2023-02-28T09:26:22;5.23;;;3.00;;
22963;SDS011;11648;49.306;6.934;2023-02-28T09:28:51;6.80;;;3.40;;
22963;SDS011;11648;49.306;6.934;2023-02-28T09:31:21;4.93;;;3.03;;
22963;SDS011;11648;49.306;6.934;2023-02-28T09:33:50;6.67;;;3.60;;
22963;SDS011;11648;49.306;6.934;2023-02-28T09:36:18;5.03;;;3.40;;
22963;SDS011;11648;49.306;6.934;2023-02-28T09:38:46;6.37;;;3.50;;
22963;SDS011;11648;49.306;6.934;2023-02-28T09:43:49;4.80;;;3.20;;
22963;SDS011;11648;49.306;6.934;2023-02-28T09:49:01;4.50;;;3.10;;
22963;SDS011;11648;49.306;6.934;2023-02-28T09:51:55;5.73;;;3.60;;
22963;SDS011;11648;49.306;6.934;2023-02-28T09:54:28;5.07;;;3.37;;
22963;SDS011;11648;49.306;6.934;2023-02-28T10:02:39;6.67;;;4.50;;
22963;SDS011;11648;49.306;6.934;2023-02-28T10:05:15;6.23;;;4.40;;
22963;SDS011;11648;49.306;6.934;2023-02-28T10:07:55;4.80;;;3.40;;
22963;SDS011;11648;49.306;6.934;2023-02-28T10:13:00;7.20;;;3.80;;
22963;SDS011;11648;49.306;6.934;2023-02-28T10:15:29;5.10;;;3.80;;
22963;SDS011;11648;49.306;6.934;2023-02-28T10:17:59;4.90;;;3.27;;
22963;SDS011;11648;49.306;6.934;2023-02-28T10:20:35;4.70;;;3.10;;
22963;SDS011;11648;49.306;6.934;2023-02-28T10:23:21;6.03;;;3.40;;
22963;SDS011;11648;49.306;6.934;2023-02-28T10:26:05;5.03;;;3.33;;
22963;SDS011;11648;49.306;6.934;2023-02-28T10:28:37;6.10;;;3.47;;
22963;SDS011;11648;49.306;6.934;2023-02-28T10:31:04;5.47;;;3.77;;
22963;SDS011;11648;49.306;6.934;2023-02-28T10:33:35;5.30;;;3.27;;
22963;SDS011;11648;49.306;6.934;2023-02-28T10:36:02;4.17;;;3.20;;
22963;SDS011;11648;49.306;6.934;2023-02-28T10:38:34;5.33;;;3.17;;
22963;SDS011;11648;49.306;6.934;2023-02-28T10:41:08;4.50;;;2.97;;
22963;SDS011;11648;49.306;6.934;2023-02-28T10:43:42;4.67;;;3.20;;
22963;SDS011;11648;49.306;6.934;2023-02-28T10:46:18;5.60;;;3.10;;
22963;SDS011;11648;49.306;6.934;2023-02-28T10:49:03;4.80;;;3.13;;
22963;SDS011;11648;49.306;6.934;2023-02-28T10:51:38;4.23;;;3.40;;
22963;SDS011;11648;49.306;6.934;2023-02-28T10:54:17;5.30;;;3.83;;
22963;SDS011;11648;49.306;6.934;2023-02-28T10:56:54;5.30;;;3.40;;
22963;SDS011;11648;49.306;6.934;2023-02-28T10:59:33;4.30;;;3.10;;
22963;SDS011;11648;49.306;6.934;2023-02-28T11:02:00;4.60;;;3.47;;
22963;SDS011;11648;49.306;6.934;2023-02-28T11:11:59;6.07;;;3.77;;
22963;SDS011;11648;49.306;6.934;2023-02-28T11:14:28;4.40;;;3.33;;
22963;SDS011;11648;49.306;6.934;2023-02-28T11:17:02;5.13;;;3.60;;
22963;SDS011;11648;49.306;6.934;2023-02-28T11:19:44;5.60;;;3.63;;
22963;SDS011;11648;49.306;6.934;2023-02-28T11:22:21;4.73;;;3.67;;
22963;SDS011;11648;49.306;6.934;2023-02-28T11:24:51;7.07;;;3.30;;
22963;SDS011;11648;49.306;6.934;2023-02-28T11:27:25;5.47;;;3.80;;
22963;SDS011;11648;49.306;6.934;2023-02-28T11:29:58;4.73;;;3.70;;
22963;SDS011;11648;49.306;6.934;2023-02-28T11:32:26;6.60;;;4.07;;
22963;SDS011;11648;49.306;6.934;2023-02-28T11:37:37;5.27;;;3.67;;
22963;SDS011;11648;49.306;6.934;2023-02-28T11:40:08;7.17;;;3.70;;
22963;SDS011;11648;49.306;6.934;2023-02-28T11:45:55;5.10;;;3.80;;
22963;SDS011;11648;49.306;6.934;2023-02-28T11:51:15;5.53;;;4.43;;
22963;SDS011;11648;49.306;6.934;2023-02-28T12:10:09;6.30;;;4.10;;
22963;SDS011;11648;49.306;6.934;2023-02-28T12:18:45;5.63;;;4.07;;
22963;SDS011;11648;49.306;6.934;2023-02-28T12:26:40;5.27;;;4.27;;
22963;SDS011;11648;49.306;6.934;2023-02-28T12:34:52;6.60;;;4.27;;
22963;SDS011;11648;49.306;6.934;2023-02-28T12:37:28;6.50;;;4.33;;
22963;SDS011;11648;49.306;6.934;2023-02-28T12:40:03;6.80;;;5.00;;
22963;SDS011;11648;49.306;6.934;2023-02-28T12:42:37;7.03;;;4.67;;
22963;SDS011;11648;49.306;6.934;2023-02-28T12:45:22;8.33;;;5.07;;
22963;SDS011;11648;49.306;6.934;2023-02-28T12:47:55;7.80;;;5.20;;
22963;SDS011;11648;49.306;6.934;2023-02-28T12:50:26;6.60;;;4.43;;
22963;SDS011;11648;49.306;6.934;2023-02-28T12:53:03;7.13;;;5.07;;
22963;SDS011;11648;49.306;6.934;2023-02-28T12:55:43;7.57;;;5.07;;
22963;SDS011;11648;49.306;6.934;2023-02-28T12:58:33;8.00;;;5.00;;
22963;SDS011;11648;49.306;6.934;2023-02-28T13:09:16;6.67;;;4.87;;
22963;SDS011;11648;49.306;6.934;2023-02-28T13:11:45;7.13;;;4.70;;
22963;SDS011;11648;49.306;6.934;2023-02-28T13:17:32;7.67;;;5.63;;
22963;SDS011;11648;49.306;6.934;2023-02-28T13:19:35;7.20;;;5.10;;
22963;SDS011;11648;49.306;6.934;2023-02-28T13:27:54;8.87;;;5.00;;
22963;SDS011;11648;49.306;6.934;2023-02-28T13:33:24;5.93;;;4.47;;
22963;SDS011;11648;49.306;6.934;2023-02-28T13:36:06;7.00;;;4.97;;
22963;SDS011;11648;49.306;6.934;2023-02-28T13:38:42;12.07;;;5.70;;
22963;SDS011;11648;49.306;6.934;2023-02-28T13:46:29;7.50;;;5.37;;
22963;SDS011;11648;49.306;6.934;2023-02-28T13:51:50;7.07;;;4.97;;
22963;SDS011;11648;49.306;6.934;2023-02-28T13:54:24;8.77;;;5.40;;
22963;SDS011;11648;49.306;6.934;2023-02-28T14:05:26;8.50;;;5.30;;
22963;SDS011;11648;49.306;6.934;2023-02-28T14:07:56;9.63;;;5.40;;
22963;SDS011;11648;49.306;6.934;2023-02-28T14:10:30;7.30;;;5.53;;
22963;SDS011;11648;49.306;6.934;2023-02-28T14:13:00;7.27;;;5.20;;
22963;SDS011;11648;49.306;6.934;2023-02-28T14:18:04;8.67;;;5.30;;
22963;SDS011;11648;49.306;6.934;2023-02-28T14:20:40;9.23;;;5.20;;
22963;SDS011;11648;49.306;6.934;2023-02-28T14:25:54;7.73;;;4.90;;
22963;SDS011;11648;49.306;6.934;2023-02-28T14:31:18;9.53;;;5.87;;
22963;SDS011;11648;49.306;6.934;2023-02-28T14:36:39;9.77;;;5.50;;
22963;SDS011;11648;49.306;6.934;2023-02-28T14:41:43;8.97;;;5.33;;
22963;SDS011;11648;49.306;6.934;2023-02-28T14:44:20;8.03;;;5.43;;
22963;SDS011;11648;49.306;6.934;2023-02-28T14:46:51;8.53;;;5.60;;
22963;SDS011;11648;49.306;6.934;2023-02-28T14:49:21;7.57;;;5.40;;
22963;SDS011;11648;49.306;6.934;2023-02-28T14:52:09;7.07;;;5.20;;
22963;SDS011;11648;49.306;6.934;2023-02-28T14:54:41;8.60;;;5.67;;
22963;SDS011;11648;49.306;6.934;2023-02-28T14:57:25;7.60;;;4.97;;
22963;SDS011;11648;49.306;6.934;2023-02-28T14:59:59;8.17;;;5.27;;
22963;SDS011;11648;49.306;6.934;2023-02-28T15:02:46;7.10;;;5.10;;
22963;SDS011;11648;49.306;6.934;2023-02-28T15:07:43;8.17;;;5.57;;
22963;SDS011;11648;49.306;6.934;2023-02-28T15:10:24;7.73;;;5.07;;
22963;SDS011;11648;49.306;6.934;2023-02-28T15:12:56;8.80;;;5.10;;
22963;SDS011;11648;49.306;6.934;2023-02-28T15:15:26;7.10;;;5.00;;
22963;SDS011;11648;49.306;6.934;2023-02-28T15:18:14;9.30;;;5.63;;
22963;SDS011;11648;49.306;6.934;2023-02-28T15:20:48;8.10;;;5.67;;
22963;SDS011;11648;49.306;6.934;2023-02-28T15:23:17;7.10;;;5.20;;
22963;SDS011;11648;49.306;6.934;2023-02-28T15:25:46;8.20;;;5.60;;
22963;SDS011;11648;49.306;6.934;2023-02-28T15:28:19;8.07;;;5.37;;
22963;SDS011;11648;49.306;6.934;2023-02-28T15:30:53;7.23;;;5.30;;
22963;SDS011;11648;49.306;6.934;2023-02-28T15:33:29;6.73;;;5.20;;
22963;SDS011;11648;49.306;6.934;2023-02-28T15:38:42;9.03;;;5.43;;
22963;SDS011;11648;49.306;6.934;2023-02-28T15:41:21;8.20;;;5.67;;
22963;SDS011;11648;49.306;6.934;2023-02-28T15:46:44;8.20;;;6.03;;
22963;SDS011;11648;49.306;6.934;2023-02-28T15:49:21;9.67;;;6.87;;
22963;SDS011;11648;49.306;6.934;2023-02-28T15:51:50;7.60;;;5.40;;
22963;SDS011;11648;49.306;6.934;2023-02-28T15:54:21;7.97;;;5.50;;
22963;SDS011;11648;49.306;6.934;2023-02-28T15:56:51;9.00;;;6.00;;
22963;SDS011;11648;49.306;6.934;2023-02-28T15:59:25;9.80;;;6.13;;
22963;SDS011;11648;49.306;6.934;2023-02-28T16:05:01;8.23;;;5.43;;
22963;SDS011;11648;49.306;6.934;2023-02-28T16:07:34;8.67;;;5.50;;
22963;SDS011;11648;49.306;6.934;2023-02-28T16:10:03;8.83;;;5.90;;
22963;SDS011;11648;49.306;6.934;2023-02-28T16:12:31;8.13;;;5.60;;
22963;SDS011;11648;49.306;6.934;2023-02-28T16:15:00;9.93;;;7.07;;
22963;SDS011;11648;49.306;6.934;2023-02-28T16:17:30;8.13;;;6.33;;
22963;SDS011;11648;49.306;6.934;2023-02-28T16:20:00;10.47;;;6.40;;
22963;SDS011;11648;49.306;6.934;2023-02-28T16:22:27;14.23;;;8.50;;
22963;SDS011;11648;49.306;6.934;2023-02-28T16:24:53;12.20;;;7.80;;
22963;SDS011;11648;49.306;6.934;2023-02-28T16:27:21;23.77;;;13.37;;
22963;SDS011;11648;49.306;6.934;2023-02-28T16:29:56;10.77;;;7.60;;
22963;SDS011;11648;49.306;6.934;2023-02-28T16:32:23;13.37;;;7.93;;
22963;SDS011;11648;49.306;6.934;2023-02-28T16:34:50;8.60;;;5.83;;
22963;SDS011;11648;49.306;6.934;2023-02-28T16:37:17;8.33;;;5.77;;
22963;SDS011;11648;49.306;6.934;2023-02-28T16:39:44;11.47;;;7.20;;
22963;SDS011;11648;49.306;6.934;2023-02-28T16:42:14;12.07;;;8.00;;
22963;SDS011;11648;49.306;6.934;2023-02-28T16:44:53;7.67;;;5.53;;
22963;SDS011;11648;49.306;6.934;2023-02-28T16:47:21;9.67;;;5.87;;
22963;SDS011;11648;49.306;6.934;2023-02-28T16:49:48;14.87;;;8.43;;
22963;SDS011;11648;49.306;6.934;2023-02-28T16:52:14;9.47;;;5.87;;
22963;SDS011;11648;49.306;6.934;2023-02-28T16:54:41;13.60;;;8.37;;
22963;SDS011;11648;49.306;6.934;2023-02-28T16:57:15;16.33;;;9.10;;
22963;SDS011;11648;49.306;6.934;2023-02-28T16:59:46;8.70;;;6.47;;
22963;SDS011;11648;49.306;6.934;2023-02-28T17:02:14;8.47;;;5.83;;
22963;SDS011;11648;49.306;6.934;2023-02-28T17:04:43;9.37;;;6.10;;
22963;SDS011;11648;49.306;6.934;2023-02-28T17:07:13;8.77;;;6.17;;
22963;SDS011;11648;49.306;6.934;2023-02-28T17:09:42;9.43;;;6.10;;
22963;SDS011;11648;49.306;6.934;2023-02-28T17:12:12;11.53;;;6.40;;
22963;SDS011;11648;49.306;6.934;2023-02-28T17:14:39;11.87;;;6.80;;
22963;SDS011;11648;49.306;6.934;2023-02-28T17:17:06;10.63;;;6.37;;
22963;SDS011;11648;49.306;6.934;2023-02-28T17:19:33;9.23;;;5.83;;
22963;SDS011;11648;49.306;6.934;2023-02-28T17:22:02;9.00;;;6.30;;
22963;SDS011;11648;49.306;6.934;2023-02-28T17:24:29;10.13;;;6.67;;
22963;SDS011;11648;49.306;6.934;2023-02-28T17:26:57;10.30;;;6.43;;
22963;SDS011;11648;49.306;6.934;2023-02-28T17:29:24;8.83;;;5.97;;
22963;SDS011;11648;49.306;6.934;2023-02-28T17:31:51;8.83;;;6.23;;
22963;SDS011;11648;49.306;6.934;2023-02-28T17:34:18;9.57;;;6.30;;
22963;SDS011;11648;49.306;6.934;2023-02-28T17:36:46;7.37;;;5.43;;
22963;SDS011;11648;49.306;6.934;2023-02-28T17:39:14;8.10;;;5.70;;
22963;SDS011;11648;49.306;6.934;2023-02-28T17:41:46;9.23;;;6.10;;
22963;SDS011;11648;49.306;6.934;2023-02-28T17:44:13;7.70;;;5.73;;
22963;SDS011;11648;49.306;6.934;2023-02-28T17:46:39;9.10;;;5.90;;
22963;SDS011;11648;49.306;6.934;2023-02-28T17:49:08;8.50;;;5.97;;